sensor_id;sensor_type;location;lat;lon;timestamp;pressure;altitude;pressure_sealevel;temperature;humidity
82953;BME280;74888;40.196;44.560;2024-02-15T00:00:16;86956.84;;;11.52;54.70
82953;BME280;74888;40.196;44.560;2024-02-15T00:02:46;86951.44;;;11.45;54.83
82953;BME280;74888;40.196;44.560;2024-02-15T00:05:12;86952.53;;;11.12;55.67
82953;BME280;74888;40.196;44.560;2024-02-15T00:07:41;86950.53;;;10.99;56.19
82953;BME280;74888;40.196;44.560;2024-02-15T00:13:22;86950.31;;;10.97;55.95
82953;BME280;74888;40.196;44.560;2024-02-15T00:15:48;86955.81;;;11.18;55.86
82953;BME280;74888;40.196;44.560;2024-02-15T00:18:15;86948.00;;;11.31;55.66
82953;BME280;74888;40.196;44.560;2024-02-15T00:20:43;86949.41;;;11.56;54.52
82953;BME280;74888;40.196;44.560;2024-02-15T00:23:11;86947.41;;;11.81;53.56
82953;BME280;74888;40.196;44.560;2024-02-15T00:25:37;86943.13;;;11.96;52.91
82953;BME280;74888;40.196;44.560;2024-02-15T00:28:05;86947.94;;;12.11;52.87
82953;BME280;74888;40.196;44.560;2024-02-15T00:30:30;86938.66;;;11.91;53.58
82953;BME280;74888;40.196;44.560;2024-02-15T00:32:57;86941.38;;;11.67;54.24
82953;BME280;74888;40.196;44.560;2024-02-15T00:35:22;86940.84;;;11.50;54.60
82953;BME280;74888;40.196;44.560;2024-02-15T00:37:50;86944.75;;;11.25;56.68
82953;BME280;74888;40.196;44.560;2024-02-15T00:40:16;86938.88;;;11.19;56.21
82953;BME280;74888;40.196;44.560;2024-02-15T00:42:45;86944.59;;;11.36;55.86
82953;BME280;74888;40.196;44.560;2024-02-15T00:45:11;86935.66;;;11.45;54.83
82953;BME280;74888;40.196;44.560;2024-02-15T00:47:37;86931.41;;;11.42;55.22
82953;BME280;74888;40.196;44.560;2024-02-15T00:50:04;86939.00;;;11.27;55.95
82953;BME280;74888;40.196;44.560;2024-02-15T00:52:30;86922.81;;;11.04;56.78
82953;BME280;74888;40.196;44.560;2024-02-15T00:54:56;86925.91;;;11.02;55.65
82953;BME280;74888;40.196;44.560;2024-02-15T00:57:24;86926.97;;;11.12;56.51
82953;BME280;74888;40.196;44.560;2024-02-15T00:59:50;86931.13;;;11.27;55.67
82953;BME280;74888;40.196;44.560;2024-02-15T01:02:18;86929.84;;;11.33;55.64
82953;BME280;74888;40.196;44.560;2024-02-15T01:04:51;86932.84;;;11.43;54.50
82953;BME280;74888;40.196;44.560;2024-02-15T01:07:20;86940.00;;;11.24;55.97
82953;BME280;74888;40.196;44.560;2024-02-15T01:09:47;86942.84;;;11.26;55.16
82953;BME280;74888;40.196;44.560;2024-02-15T01:12:12;86949.75;;;11.47;55.21
82953;BME280;74888;40.196;44.560;2024-02-15T01:14:38;86936.28;;;11.75;53.91
82953;BME280;74888;40.196;44.560;2024-02-15T01:17:10;86940.94;;;11.82;54.33
82953;BME280;74888;40.196;44.560;2024-02-15T01:22:57;86955.03;;;11.66;54.24
82953;BME280;74888;40.196;44.560;2024-02-15T01:25:23;86946.91;;;11.82;53.83
82953;BME280;74888;40.196;44.560;2024-02-15T01:27:51;86951.44;;;12.00;53.04
82953;BME280;74888;40.196;44.560;2024-02-15T01:30:24;86957.06;;;12.10;53.26
82953;BME280;74888;40.196;44.560;2024-02-15T01:32:50;86955.63;;;12.09;52.50
82953;BME280;74888;40.196;44.560;2024-02-15T01:35:17;86960.09;;;12.14;52.33
82953;BME280;74888;40.196;44.560;2024-02-15T01:37:44;86954.03;;;12.19;52.90
82953;BME280;74888;40.196;44.560;2024-02-15T01:40:21;86957.81;;;12.23;51.96
82953;BME280;74888;40.196;44.560;2024-02-15T01:42:47;86964.25;;;12.22;51.72
82953;BME280;74888;40.196;44.560;2024-02-15T01:45:16;86971.00;;;12.36;51.76
82953;BME280;74888;40.196;44.560;2024-02-15T01:47:42;86966.28;;;12.48;51.91
82953;BME280;74888;40.196;44.560;2024-02-15T01:50:13;86981.47;;;12.55;51.59
82953;BME280;74888;40.196;44.560;2024-02-15T01:52:47;86986.78;;;12.68;51.96
82953;BME280;74888;40.196;44.560;2024-02-15T01:55:18;86989.22;;;12.79;51.68
82953;BME280;74888;40.196;44.560;2024-02-15T01:57:50;86989.94;;;12.80;51.53
82953;BME280;74888;40.196;44.560;2024-02-15T02:00:17;86992.47;;;12.85;51.02
82953;BME280;74888;40.196;44.560;2024-02-15T02:02:46;86988.63;;;12.86;51.06
82953;BME280;74888;40.196;44.560;2024-02-15T02:05:17;86988.13;;;12.88;51.45
82953;BME280;74888;40.196;44.560;2024-02-15T02:07:43;87000.38;;;12.85;51.30
82953;BME280;74888;40.196;44.560;2024-02-15T02:10:11;86992.66;;;12.74;52.39
82953;BME280;74888;40.196;44.560;2024-02-15T02:12:40;86990.84;;;12.69;52.95
82953;BME280;74888;40.196;44.560;2024-02-15T02:15:09;86991.13;;;12.66;53.44
82953;BME280;74888;40.196;44.560;2024-02-15T02:17:40;86994.63;;;12.55;54.01
82953;BME280;74888;40.196;44.560;2024-02-15T02:20:07;86994.22;;;12.51;54.21
82953;BME280;74888;40.196;44.560;2024-02-15T02:22:36;86997.28;;;12.55;54.91
82953;BME280;74888;40.196;44.560;2024-02-15T02:25:08;87005.75;;;12.48;55.15
82953;BME280;74888;40.196;44.560;2024-02-15T02:27:36;87001.72;;;12.47;54.82
82953;BME280;74888;40.196;44.560;2024-02-15T02:30:13;87003.41;;;12.45;56.77
82953;BME280;74888;40.196;44.560;2024-02-15T02:32:56;87003.47;;;12.39;56.72
82953;BME280;74888;40.196;44.560;2024-02-15T02:35:32;87003.97;;;12.37;57.35
82953;BME280;74888;40.196;44.560;2024-02-15T02:38:02;87011.19;;;12.37;56.67
82953;BME280;74888;40.196;44.560;2024-02-15T02:40:29;87012.47;;;12.30;56.07
82953;BME280;74888;40.196;44.560;2024-02-15T02:43:01;86998.91;;;12.26;57.75
82953;BME280;74888;40.196;44.560;2024-02-15T02:45:29;87007.50;;;12.27;56.93
82953;BME280;74888;40.196;44.560;2024-02-15T02:47:56;87009.13;;;12.30;56.33
82953;BME280;74888;40.196;44.560;2024-02-15T02:50:24;87010.53;;;12.31;58.07
82953;BME280;74888;40.196;44.560;2024-02-15T02:52:51;87010.53;;;12.31;57.42
82953;BME280;74888;40.196;44.560;2024-02-15T02:55:18;87013.56;;;12.22;57.42
82953;BME280;74888;40.196;44.560;2024-02-15T02:57:46;87010.44;;;12.23;57.67
82953;BME280;74888;40.196;44.560;2024-02-15T03:00:21;87023.78;;;12.25;58.13
82953;BME280;74888;40.196;44.560;2024-02-15T03:02:56;87023.88;;;12.20;58.59
82953;BME280;74888;40.196;44.560;2024-02-15T03:05:27;87020.59;;;12.14;58.70
82953;BME280;74888;40.196;44.560;2024-02-15T03:07:55;87032.81;;;12.11;56.96
82953;BME280;74888;40.196;44.560;2024-02-15T03:10:20;87028.06;;;12.10;56.90
82953;BME280;74888;40.196;44.560;2024-02-15T03:12:47;87035.41;;;12.17;57.69
82953;BME280;74888;40.196;44.560;2024-02-15T03:15:13;87035.59;;;12.19;57.39
82953;BME280;74888;40.196;44.560;2024-02-15T03:17:41;87038.50;;;12.15;58.36
82953;BME280;74888;40.196;44.560;2024-02-15T03:20:09;87030.41;;;12.13;57.90
82953;BME280;74888;40.196;44.560;2024-02-15T03:22:56;87033.53;;;12.12;57.88
82953;BME280;74888;40.196;44.560;2024-02-15T03:25:26;87023.22;;;11.95;57.58
82953;BME280;74888;40.196;44.560;2024-02-15T03:27:56;87030.19;;;11.74;58.46
82953;BME280;74888;40.196;44.560;2024-02-15T03:30:27;87025.13;;;11.58;59.55
82953;BME280;74888;40.196;44.560;2024-02-15T03:32:55;87014.28;;;11.43;59.20
82953;BME280;74888;40.196;44.560;2024-02-15T03:35:34;87011.66;;;11.43;59.97
82953;BME280;74888;40.196;44.560;2024-02-15T03:38:00;87013.63;;;11.37;58.65
82953;BME280;74888;40.196;44.560;2024-02-15T03:40:27;87006.88;;;11.41;58.66
82953;BME280;74888;40.196;44.560;2024-02-15T03:42:53;87000.16;;;11.46;58.09
82953;BME280;74888;40.196;44.560;2024-02-15T03:45:20;86998.63;;;11.32;59.43
82953;BME280;74888;40.196;44.560;2024-02-15T03:47:47;86990.13;;;11.01;60.61
82953;BME280;74888;40.196;44.560;2024-02-15T03:50:17;86989.34;;;10.58;63.18
82953;BME280;74888;40.196;44.560;2024-02-15T03:52:45;86990.47;;;10.39;62.84
82953;BME280;74888;40.196;44.560;2024-02-15T03:55:11;86994.22;;;10.14;64.61
82953;BME280;74888;40.196;44.560;2024-02-15T03:57:58;86994.78;;;10.01;64.64
82953;BME280;74888;40.196;44.560;2024-02-15T04:00:24;86983.44;;;9.87;64.84
82953;BME280;74888;40.196;44.560;2024-02-15T04:02:57;86999.50;;;9.67;66.62
82953;BME280;74888;40.196;44.560;2024-02-15T04:05:24;86989.81;;;9.51;66.13
82953;BME280;74888;40.196;44.560;2024-02-15T04:07:49;86992.94;;;9.44;66.90
82953;BME280;74888;40.196;44.560;2024-02-15T04:10:15;87002.50;;;9.42;67.16
82953;BME280;74888;40.196;44.560;2024-02-15T04:12:44;86991.03;;;9.45;66.96
82953;BME280;74888;40.196;44.560;2024-02-15T04:15:19;87001.94;;;9.54;67.25
82953;BME280;74888;40.196;44.560;2024-02-15T04:17:46;87010.72;;;9.62;66.36
82953;BME280;74888;40.196;44.560;2024-02-15T04:20:12;87020.25;;;9.60;67.08
82953;BME280;74888;40.196;44.560;2024-02-15T04:22:39;87033.00;;;9.80;66.24
82953;BME280;74888;40.196;44.560;2024-02-15T04:25:15;87041.00;;;9.98;64.82
82953;BME280;74888;40.196;44.560;2024-02-15T04:27:48;87053.34;;;10.15;64.74
82953;BME280;74888;40.196;44.560;2024-02-15T04:30:16;87071.84;;;10.33;64.34
82953;BME280;74888;40.196;44.560;2024-02-15T04:32:42;87077.38;;;10.59;63.70
82953;BME280;74888;40.196;44.560;2024-02-15T04:35:08;87078.00;;;10.71;63.31
82953;BME280;74888;40.196;44.560;2024-02-15T04:37:35;87074.50;;;10.57;62.94
82953;BME280;74888;40.196;44.560;2024-02-15T04:40:03;87081.53;;;10.44;63.05
82953;BME280;74888;40.196;44.560;2024-02-15T04:42:46;87087.41;;;10.55;62.79
82953;BME280;74888;40.196;44.560;2024-02-15T04:45:12;87090.09;;;10.79;61.90
82953;BME280;74888;40.196;44.560;2024-02-15T04:47:45;87096.50;;;10.84;62.59
82953;BME280;74888;40.196;44.560;2024-02-15T04:50:12;87093.09;;;10.89;62.22
82953;BME280;74888;40.196;44.560;2024-02-15T04:52:37;87104.88;;;11.12;61.23
82953;BME280;74888;40.196;44.560;2024-02-15T04:55:04;87099.91;;;11.33;60.53
82953;BME280;74888;40.196;44.560;2024-02-15T04:57:34;87100.25;;;11.48;59.61
82953;BME280;74888;40.196;44.560;2024-02-15T05:00:02;87099.97;;;11.51;60.10
82953;BME280;74888;40.196;44.560;2024-02-15T05:02:35;87095.13;;;11.55;59.43
82953;BME280;74888;40.196;44.560;2024-02-15T05:05:10;87089.22;;;11.49;60.18
82953;BME280;74888;40.196;44.560;2024-02-15T05:07:35;87091.38;;;11.51;60.08
82953;BME280;74888;40.196;44.560;2024-02-15T05:10:06;87085.50;;;11.39;60.39
82953;BME280;74888;40.196;44.560;2024-02-15T05:12:33;87084.56;;;11.37;61.35
82953;BME280;74888;40.196;44.560;2024-02-15T05:15:01;87078.50;;;11.47;60.65
82953;BME280;74888;40.196;44.560;2024-02-15T05:17:27;87073.66;;;11.75;60.03
82953;BME280;74888;40.196;44.560;2024-02-15T05:19:55;87058.94;;;11.67;59.30
82953;BME280;74888;40.196;44.560;2024-02-15T05:22:30;87058.50;;;11.63;59.84
82953;BME280;74888;40.196;44.560;2024-02-15T05:24:57;87056.94;;;11.54;60.36
82953;BME280;74888;40.196;44.560;2024-02-15T05:27:24;87050.91;;;11.59;58.97
82953;BME280;74888;40.196;44.560;2024-02-15T05:29:51;87031.69;;;11.70;59.79
82953;BME280;74888;40.196;44.560;2024-02-15T05:32:18;87039.78;;;11.90;58.87
82953;BME280;74888;40.196;44.560;2024-02-15T05:34:46;87036.59;;;11.97;58.84
82953;BME280;74888;40.196;44.560;2024-02-15T05:37:12;87052.72;;;12.07;57.97
82953;BME280;74888;40.196;44.560;2024-02-15T05:39:38;87065.47;;;12.03;57.47
82953;BME280;74888;40.196;44.560;2024-02-15T05:42:06;87062.81;;;12.03;57.64
82953;BME280;74888;40.196;44.560;2024-02-15T05:44:31;87065.53;;;12.16;57.41
82953;BME280;74888;40.196;44.560;2024-02-15T05:47:06;87079.09;;;12.38;57.09
82953;BME280;74888;40.196;44.560;2024-02-15T05:49:32;87068.78;;;12.41;55.79
82953;BME280;74888;40.196;44.560;2024-02-15T05:51:59;87068.91;;;12.48;55.74
82953;BME280;74888;40.196;44.560;2024-02-15T05:54:24;87060.84;;;12.59;54.95
82953;BME280;74888;40.196;44.560;2024-02-15T05:56:52;87060.50;;;12.50;54.72
82953;BME280;74888;40.196;44.560;2024-02-15T05:59:20;87063.59;;;12.54;56.11
82953;BME280;74888;40.196;44.560;2024-02-15T06:01:47;87068.47;;;12.63;55.60
82953;BME280;74888;40.196;44.560;2024-02-15T06:04:24;87079.91;;;12.65;54.75
82953;BME280;74888;40.196;44.560;2024-02-15T06:06:51;87089.16;;;12.72;54.52
82953;BME280;74888;40.196;44.560;2024-02-15T06:09:20;87094.69;;;12.87;55.21
82953;BME280;74888;40.196;44.560;2024-02-15T06:11:48;87092.97;;;13.08;55.07
82953;BME280;74888;40.196;44.560;2024-02-15T06:14:16;87094.97;;;13.15;53.67
82953;BME280;74888;40.196;44.560;2024-02-15T06:16:43;87105.16;;;13.24;53.87
82953;BME280;74888;40.196;44.560;2024-02-15T06:19:10;87105.38;;;13.39;54.16
82953;BME280;74888;40.196;44.560;2024-02-15T06:21:36;87098.78;;;13.45;53.49
82953;BME280;74888;40.196;44.560;2024-02-15T06:24:05;87116.66;;;13.52;53.80
82953;BME280;74888;40.196;44.560;2024-02-15T06:26:31;87124.47;;;13.58;53.48
82953;BME280;74888;40.196;44.560;2024-02-15T06:28:59;87127.00;;;13.50;54.03
82953;BME280;74888;40.196;44.560;2024-02-15T06:31:45;87127.50;;;13.62;53.67
82953;BME280;74888;40.196;44.560;2024-02-15T06:34:30;87143.66;;;13.72;54.32
82953;BME280;74888;40.196;44.560;2024-02-15T06:37:36;87149.84;;;13.74;54.18
82953;BME280;74888;40.196;44.560;2024-02-15T06:40:21;87148.22;;;13.58;54.21
82953;BME280;74888;40.196;44.560;2024-02-15T06:42:47;87154.56;;;13.49;54.65
82953;BME280;74888;40.196;44.560;2024-02-15T06:45:13;87156.56;;;13.43;54.89
82953;BME280;74888;40.196;44.560;2024-02-15T06:47:45;87155.53;;;13.33;55.12
82953;BME280;74888;40.196;44.560;2024-02-15T06:50:13;87156.34;;;13.28;54.94
82953;BME280;74888;40.196;44.560;2024-02-15T06:52:45;87154.22;;;13.27;56.03
82953;BME280;74888;40.196;44.560;2024-02-15T06:55:11;87152.94;;;13.46;55.32
82953;BME280;74888;40.196;44.560;2024-02-15T06:57:38;87146.19;;;13.64;55.05
82953;BME280;74888;40.196;44.560;2024-02-15T07:00:09;87142.66;;;13.75;54.03
82953;BME280;74888;40.196;44.560;2024-02-15T07:02:39;87148.81;;;13.77;54.17
82953;BME280;74888;40.196;44.560;2024-02-15T07:05:08;87151.88;;;13.81;53.82
82953;BME280;74888;40.196;44.560;2024-02-15T07:07:41;87156.03;;;13.90;53.08
82953;BME280;74888;40.196;44.560;2024-02-15T07:10:10;87150.34;;;13.86;52.55
82953;BME280;74888;40.196;44.560;2024-02-15T07:12:37;87152.09;;;13.96;52.81
82953;BME280;74888;40.196;44.560;2024-02-15T07:15:10;87145.28;;;14.01;52.32
82953;BME280;74888;40.196;44.560;2024-02-15T07:17:39;87140.31;;;14.10;52.92
82953;BME280;74888;40.196;44.560;2024-02-15T07:20:07;87145.91;;;14.20;52.99
82953;BME280;74888;40.196;44.560;2024-02-15T07:22:35;87144.06;;;14.15;51.13
82953;BME280;74888;40.196;44.560;2024-02-15T07:25:03;87146.94;;;14.04;52.78
82953;BME280;74888;40.196;44.560;2024-02-15T07:27:30;87140.41;;;14.18;52.52
82953;BME280;74888;40.196;44.560;2024-02-15T07:30:00;87146.63;;;14.20;52.57
82953;BME280;74888;40.196;44.560;2024-02-15T07:32:28;87144.38;;;14.24;50.52
82953;BME280;74888;40.196;44.560;2024-02-15T07:34:57;87138.41;;;14.24;52.29
82953;BME280;74888;40.196;44.560;2024-02-15T07:37:22;87139.22;;;14.32;52.44
82953;BME280;74888;40.196;44.560;2024-02-15T07:39:56;87140.94;;;14.42;51.54
82953;BME280;74888;40.196;44.560;2024-02-15T07:42:24;87137.88;;;14.51;51.55
82953;BME280;74888;40.196;44.560;2024-02-15T07:44:52;87140.19;;;14.55;51.94
82953;BME280;74888;40.196;44.560;2024-02-15T07:47:20;87133.56;;;14.61;52.46
82953;BME280;74888;40.196;44.560;2024-02-15T07:49:55;87130.44;;;14.63;52.31
82953;BME280;74888;40.196;44.560;2024-02-15T07:52:21;87134.00;;;14.52;51.26
82953;BME280;74888;40.196;44.560;2024-02-15T07:54:46;87138.31;;;14.42;51.08
82953;BME280;74888;40.196;44.560;2024-02-15T07:57:12;87136.69;;;14.39;52.50
82953;BME280;74888;40.196;44.560;2024-02-15T07:59:41;87134.22;;;14.41;52.70
82953;BME280;74888;40.196;44.560;2024-02-15T08:02:07;87130.97;;;14.48;52.34
82953;BME280;74888;40.196;44.560;2024-02-15T08:04:35;87135.34;;;14.46;52.82
82953;BME280;74888;40.196;44.560;2024-02-15T08:07:06;87125.16;;;14.50;53.25
82953;BME280;74888;40.196;44.560;2024-02-15T08:09:39;87118.69;;;14.51;52.96
82953;BME280;74888;40.196;44.560;2024-02-15T08:12:05;87112.09;;;14.44;52.94
82953;BME280;74888;40.196;44.560;2024-02-15T08:14:31;87116.97;;;14.40;53.11
82953;BME280;74888;40.196;44.560;2024-02-15T08:16:57;87108.63;;;14.49;53.09
82953;BME280;74888;40.196;44.560;2024-02-15T08:19:23;87111.25;;;14.62;52.33
82953;BME280;74888;40.196;44.560;2024-02-15T08:21:48;87110.31;;;14.73;52.44
82953;BME280;74888;40.196;44.560;2024-02-15T08:24:18;87109.66;;;14.80;52.39
82953;BME280;74888;40.196;44.560;2024-02-15T08:26:43;87107.53;;;14.78;51.84
82953;BME280;74888;40.196;44.560;2024-02-15T08:29:09;87104.00;;;14.76;51.97
82953;BME280;74888;40.196;44.560;2024-02-15T08:31:35;87101.56;;;14.78;52.05
82953;BME280;74888;40.196;44.560;2024-02-15T08:34:02;87093.81;;;14.80;51.66
82953;BME280;74888;40.196;44.560;2024-02-15T08:36:31;87093.22;;;14.74;52.11
82953;BME280;74888;40.196;44.560;2024-02-15T08:38:57;87088.19;;;14.63;51.74
82953;BME280;74888;40.196;44.560;2024-02-15T08:41:22;87084.13;;;14.62;51.57
82953;BME280;74888;40.196;44.560;2024-02-15T08:43:52;87072.66;;;14.59;52.13
82953;BME280;74888;40.196;44.560;2024-02-15T08:46:20;87071.00;;;14.69;52.47
82953;BME280;74888;40.196;44.560;2024-02-15T08:48:46;87069.34;;;14.79;52.18
82953;BME280;74888;40.196;44.560;2024-02-15T08:51:14;87061.25;;;14.85;51.81
82953;BME280;74888;40.196;44.560;2024-02-15T08:53:44;87061.22;;;14.98;51.23
82953;BME280;74888;40.196;44.560;2024-02-15T08:56:11;87058.13;;;15.07;51.51
82953;BME280;74888;40.196;44.560;2024-02-15T08:58:37;87056.59;;;15.12;51.42
82953;BME280;74888;40.196;44.560;2024-02-15T09:01:05;87053.28;;;15.19;51.45
82953;BME280;74888;40.196;44.560;2024-02-15T09:03:33;87052.81;;;15.28;51.17
82953;BME280;74888;40.196;44.560;2024-02-15T09:05:59;87054.09;;;15.34;50.33
82953;BME280;74888;40.196;44.560;2024-02-15T09:08:33;87048.38;;;15.43;50.30
82953;BME280;74888;40.196;44.560;2024-02-15T09:10:58;87054.84;;;15.63;50.51
82953;BME280;74888;40.196;44.560;2024-02-15T09:13:24;87041.41;;;15.81;50.17
82953;BME280;74888;40.196;44.560;2024-02-15T09:15:50;87054.34;;;15.92;49.68
82953;BME280;74888;40.196;44.560;2024-02-15T09:18:17;87036.94;;;16.05;49.71
82953;BME280;74888;40.196;44.560;2024-02-15T09:20:51;87032.78;;;16.24;47.77
82953;BME280;74888;40.196;44.560;2024-02-15T09:23:21;87030.50;;;16.28;48.78
82953;BME280;74888;40.196;44.560;2024-02-15T09:25:49;87039.31;;;16.23;48.51
82953;BME280;74888;40.196;44.560;2024-02-15T09:28:22;87038.59;;;16.23;48.29
82953;BME280;74888;40.196;44.560;2024-02-15T09:33:24;87053.16;;;16.01;48.16
82953;BME280;74888;40.196;44.560;2024-02-15T09:35:53;87045.03;;;15.99;48.14
82953;BME280;74888;40.196;44.560;2024-02-15T09:38:22;87039.59;;;16.05;48.87
82953;BME280;74888;40.196;44.560;2024-02-15T09:40:52;87040.69;;;16.17;48.73
82953;BME280;74888;40.196;44.560;2024-02-15T09:43:19;87039.00;;;16.34;48.84
82953;BME280;74888;40.196;44.560;2024-02-15T09:45:46;87041.72;;;16.49;48.80
82953;BME280;74888;40.196;44.560;2024-02-15T09:48:13;87043.34;;;16.60;48.35
82953;BME280;74888;40.196;44.560;2024-02-15T09:50:52;87024.31;;;16.76;47.28
82953;BME280;74888;40.196;44.560;2024-02-15T09:53:25;87037.44;;;16.97;47.21
82953;BME280;74888;40.196;44.560;2024-02-15T09:55:53;87033.34;;;16.96;47.19
82953;BME280;74888;40.196;44.560;2024-02-15T09:58:20;87024.88;;;16.97;46.68
82953;BME280;74888;40.196;44.560;2024-02-15T10:00:48;87015.88;;;16.85;45.78
82953;BME280;74888;40.196;44.560;2024-02-15T10:03:18;87013.72;;;16.76;46.67
82953;BME280;74888;40.196;44.560;2024-02-15T10:08:16;87017.75;;;16.62;46.22
82953;BME280;74888;40.196;44.560;2024-02-15T10:10:45;87020.25;;;16.75;45.94
82953;BME280;74888;40.196;44.560;2024-02-15T10:13:13;87024.69;;;17.03;45.97
82953;BME280;74888;40.196;44.560;2024-02-15T10:15:39;87027.38;;;17.18;46.35
82953;BME280;74888;40.196;44.560;2024-02-15T10:18:11;87025.06;;;17.30;46.05
82953;BME280;74888;40.196;44.560;2024-02-15T10:20:38;87034.81;;;17.27;45.43
82953;BME280;74888;40.196;44.560;2024-02-15T10:25:34;87021.53;;;17.04;45.17
82953;BME280;74888;40.196;44.560;2024-02-15T10:28:04;87031.75;;;16.85;44.66
82953;BME280;74888;40.196;44.560;2024-02-15T10:30:41;87027.66;;;16.62;45.06
82953;BME280;74888;40.196;44.560;2024-02-15T10:33:09;87027.19;;;16.43;45.67
82953;BME280;74888;40.196;44.560;2024-02-15T10:35:35;87031.72;;;16.27;46.00
82953;BME280;74888;40.196;44.560;2024-02-15T10:38:07;87036.97;;;16.12;45.64
82953;BME280;74888;40.196;44.560;2024-02-15T10:40:34;87035.50;;;16.03;45.91
82953;BME280;74888;40.196;44.560;2024-02-15T10:43:02;87029.59;;;16.26;46.13
82953;BME280;74888;40.196;44.560;2024-02-15T10:45:35;87028.91;;;16.68;45.46
82953;BME280;74888;40.196;44.560;2024-02-15T10:48:18;87031.97;;;17.10;45.25
82953;BME280;74888;40.196;44.560;2024-02-15T10:50:45;87023.13;;;17.30;44.52
82953;BME280;74888;40.196;44.560;2024-02-15T10:53:26;87020.66;;;17.40;43.33
82953;BME280;74888;40.196;44.560;2024-02-15T10:58:50;87005.44;;;17.10;42.65
82953;BME280;74888;40.196;44.560;2024-02-15T11:01:18;87010.41;;;16.98;43.00
82953;BME280;74888;40.196;44.560;2024-02-15T11:03:54;87007.56;;;17.04;42.74
82953;BME280;74888;40.196;44.560;2024-02-15T11:06:27;87008.81;;;17.03;42.89
82953;BME280;74888;40.196;44.560;2024-02-15T11:08:56;87004.56;;;17.00;43.56
82953;BME280;74888;40.196;44.560;2024-02-15T11:11:24;87002.59;;;16.85;43.22
82953;BME280;74888;40.196;44.560;2024-02-15T11:14:23;87003.66;;;16.90;42.71
82953;BME280;74888;40.196;44.560;2024-02-15T11:16:49;86993.22;;;16.84;43.69
82953;BME280;74888;40.196;44.560;2024-02-15T11:22:00;87009.47;;;16.81;44.34
82953;BME280;74888;40.196;44.560;2024-02-15T11:24:30;87007.00;;;16.83;43.96
82953;BME280;74888;40.196;44.560;2024-02-15T11:27:04;87014.78;;;16.73;44.84
82953;BME280;74888;40.196;44.560;2024-02-15T11:29:56;87026.59;;;16.65;45.25
82953;BME280;74888;40.196;44.560;2024-02-15T11:32:43;87017.38;;;16.58;44.69
82953;BME280;74888;40.196;44.560;2024-02-15T11:35:24;87020.00;;;16.51;43.81
82953;BME280;74888;40.196;44.560;2024-02-15T11:37:53;87014.38;;;16.54;44.92
82953;BME280;74888;40.196;44.560;2024-02-15T11:42:52;87010.34;;;16.76;44.01
82953;BME280;74888;40.196;44.560;2024-02-15T11:45:22;87009.63;;;16.68;44.23
82953;BME280;74888;40.196;44.560;2024-02-15T11:47:50;87004.72;;;16.72;44.52
82953;BME280;74888;40.196;44.560;2024-02-15T11:50:19;87008.94;;;16.82;44.55
82953;BME280;74888;40.196;44.560;2024-02-15T11:52:46;87001.72;;;16.98;44.58
82953;BME280;74888;40.196;44.560;2024-02-15T11:55:17;86999.06;;;16.98;43.71
82953;BME280;74888;40.196;44.560;2024-02-15T12:00:51;87011.81;;;17.07;43.18
82953;BME280;74888;40.196;44.560;2024-02-15T12:03:35;87025.94;;;16.94;43.53
82953;BME280;74888;40.196;44.560;2024-02-15T12:06:20;87026.59;;;16.65;43.58
82953;BME280;74888;40.196;44.560;2024-02-15T12:09:06;87022.69;;;16.58;43.86
82953;BME280;74888;40.196;44.560;2024-02-15T12:11:59;87025.66;;;16.47;44.09
82953;BME280;74888;40.196;44.560;2024-02-15T12:14:43;87016.88;;;16.60;44.37
82953;BME280;74888;40.196;44.560;2024-02-15T12:17:28;87021.84;;;16.86;44.58
82953;BME280;74888;40.196;44.560;2024-02-15T12:20:15;87010.91;;;17.04;43.73
82953;BME280;74888;40.196;44.560;2024-02-15T12:22:44;87010.78;;;17.17;43.05
82953;BME280;74888;40.196;44.560;2024-02-15T12:25:17;87016.75;;;17.33;42.20
82953;BME280;74888;40.196;44.560;2024-02-15T12:27:52;87010.94;;;17.50;42.34
82953;BME280;74888;40.196;44.560;2024-02-15T12:30:19;87007.03;;;17.58;42.31
82953;BME280;74888;40.196;44.560;2024-02-15T12:32:51;87004.03;;;17.62;41.44
82953;BME280;74888;40.196;44.560;2024-02-15T12:35:20;87005.47;;;17.63;41.14
82953;BME280;74888;40.196;44.560;2024-02-15T12:38:00;87008.66;;;17.61;41.22
82953;BME280;74888;40.196;44.560;2024-02-15T12:40:40;87008.81;;;17.48;40.08
82953;BME280;74888;40.196;44.560;2024-02-15T12:43:17;87013.97;;;17.31;40.32
82953;BME280;74888;40.196;44.560;2024-02-15T12:45:42;87011.81;;;17.14;40.87
82953;BME280;74888;40.196;44.560;2024-02-15T12:48:09;87014.44;;;16.92;41.32
82953;BME280;74888;40.196;44.560;2024-02-15T12:50:36;87006.81;;;16.81;41.38
82953;BME280;74888;40.196;44.560;2024-02-15T12:53:03;87016.19;;;16.67;41.58
82953;BME280;74888;40.196;44.560;2024-02-15T12:55:33;87015.69;;;16.40;41.83
82953;BME280;74888;40.196;44.560;2024-02-15T12:58:04;87004.91;;;16.31;42.40
82953;BME280;74888;40.196;44.560;2024-02-15T13:00:34;87017.22;;;16.21;42.52
82953;BME280;74888;40.196;44.560;2024-02-15T13:03:06;87011.22;;;16.13;42.72
82953;BME280;74888;40.196;44.560;2024-02-15T13:05:40;87005.19;;;16.05;42.41
82953;BME280;74888;40.196;44.560;2024-02-15T13:08:15;86998.63;;;16.06;42.75
82953;BME280;74888;40.196;44.560;2024-02-15T13:10:42;86997.25;;;16.05;43.05
82953;BME280;74888;40.196;44.560;2024-02-15T13:13:08;86994.53;;;15.97;42.76
82953;BME280;74888;40.196;44.560;2024-02-15T13:15:34;87002.63;;;15.91;42.85
82953;BME280;74888;40.196;44.560;2024-02-15T13:18:08;86992.91;;;15.86;42.23
82953;BME280;74888;40.196;44.560;2024-02-15T13:20:36;86993.41;;;15.77;42.87
82953;BME280;74888;40.196;44.560;2024-02-15T13:23:16;86999.16;;;15.68;42.57
82953;BME280;74888;40.196;44.560;2024-02-15T13:25:53;86996.81;;;15.57;42.59
82953;BME280;74888;40.196;44.560;2024-02-15T13:28:21;87008.75;;;15.51;43.26